sensor_id;sensor_type;location;lat;lon;timestamp;P1;durP1;ratioP1;P2;durP2;ratioP2
3781;SDS011;6881;49.962;7.718;2022-10-16T00:00:38;6.47;;;2.87;;
3781;SDS011;6881;49.962;7.718;2022-10-16T00:03:04;3.70;;;2.67;;
3781;SDS011;6881;49.962;7.718;2022-10-16T00:05:30;4.53;;;2.73;;
3781;SDS011;6881;49.962;7.718;2022-10-16T00:07:56;3.27;;;2.40;;
3781;SDS011;6881;49.962;7.718;2022-10-16T00:10:22;7.20;;;2.77;;
3781;SDS011;6881;49.962;7.718;2022-10-16T00:12:47;4.20;;;2.97;;
3781;SDS011;6881;49.962;7.718;2022-10-16T00:15:12;4.03;;;2.80;;
3781;SDS011;6881;49.962;7.718;2022-10-16T00:17:38;6.10;;;1.90;;
3781;SDS011;6881;49.962;7.718;2022-10-16T00:20:03;2.77;;;2.57;;
3781;SDS011;6881;49.962;7.718;2022-10-16T00:22:29;5.53;;;2.50;;
3781;SDS011;6881;49.962;7.718;2022-10-16T00:24:55;4.33;;;2.00;;
3781;SDS011;6881;49.962;7.718;2022-10-16T00:27:20;8.30;;;1.90;;
3781;SDS011;6881;49.962;7.718;2022-10-16T00:29:49;3.77;;;1.97;;
3781;SDS011;6881;49.962;7.718;2022-10-16T00:32:20;3.17;;;2.83;;
3781;SDS011;6881;49.962;7.718;2022-10-16T00:34:46;5.57;;;2.43;;
3781;SDS011;6881;49.962;7.718;2022-10-16T00:37:11;3.40;;;2.10;;
3781;SDS011;6881;49.962;7.718;2022-10-16T00:39:37;4.37;;;2.20;;
3781;SDS011;6881;49.962;7.718;2022-10-16T00:42:03;5.07;;;1.63;;
3781;SDS011;6881;49.962;7.718;2022-10-16T00:44:48;9.53;;;2.20;;
3781;SDS011;6881;49.962;7.718;2022-10-16T00:47:26;2.50;;;1.77;;
3781;SDS011;6881;49.962;7.718;2022-10-16T00:49:55;3.00;;;1.57;;
3781;SDS011;6881;49.962;7.718;2022-10-16T00:52:24;3.87;;;2.00;;
3781;SDS011;6881;49.962;7.718;2022-10-16T00:54:50;3.77;;;1.50;;
3781;SDS011;6881;49.962;7.718;2022-10-16T00:57:16;1.60;;;1.50;;
3781;SDS011;6881;49.962;7.718;2022-10-16T00:59:41;8.60;;;2.00;;
3781;SDS011;6881;49.962;7.718;2022-10-16T01:02:08;4.60;;;2.00;;
3781;SDS011;6881;49.962;7.718;2022-10-16T01:04:57;1.97;;;1.73;;
3781;SDS011;6881;49.962;7.718;2022-10-16T01:13:30;4.07;;;1.57;;
3781;SDS011;6881;49.962;7.718;2022-10-16T01:16:01;3.20;;;1.60;;
3781;SDS011;6881;49.962;7.718;2022-10-16T01:18:39;2.43;;;1.70;;
3781;SDS011;6881;49.962;7.718;2022-10-16T01:21:13;3.00;;;1.77;;
3781;SDS011;6881;49.962;7.718;2022-10-16T01:29:21;3.33;;;1.70;;
3781;SDS011;6881;49.962;7.718;2022-10-16T01:31:52;2.30;;;1.70;;
3781;SDS011;6881;49.962;7.718;2022-10-16T01:34:22;4.30;;;2.10;;
3781;SDS011;6881;49.962;7.718;2022-10-16T01:36:51;5.33;;;2.13;;
3781;SDS011;6881;49.962;7.718;2022-10-16T01:39:21;16.90;;;2.47;;
3781;SDS011;6881;49.962;7.718;2022-10-16T01:41:53;4.70;;;2.00;;
3781;SDS011;6881;49.962;7.718;2022-10-16T01:44:21;3.03;;;2.50;;
3781;SDS011;6881;49.962;7.718;2022-10-16T01:46:53;4.87;;;2.10;;
3781;SDS011;6881;49.962;7.718;2022-10-16T01:49:20;2.47;;;1.80;;
3781;SDS011;6881;49.962;7.718;2022-10-16T01:51:47;1.87;;;1.63;;
3781;SDS011;6881;49.962;7.718;2022-10-16T01:54:14;2.63;;;2.37;;
3781;SDS011;6881;49.962;7.718;2022-10-16T01:56:41;4.03;;;2.10;;
3781;SDS011;6881;49.962;7.718;2022-10-16T01:59:12;2.37;;;2.17;;
3781;SDS011;6881;49.962;7.718;2022-10-16T02:01:40;2.57;;;1.70;;
3781;SDS011;6881;49.962;7.718;2022-10-16T02:04:13;8.73;;;2.47;;
3781;SDS011;6881;49.962;7.718;2022-10-16T02:06:42;5.83;;;2.23;;
3781;SDS011;6881;49.962;7.718;2022-10-16T02:09:07;4.90;;;2.23;;
3781;SDS011;6881;49.962;7.718;2022-10-16T02:11:33;3.17;;;2.13;;
3781;SDS011;6881;49.962;7.718;2022-10-16T02:14:00;4.90;;;2.00;;
3781;SDS011;6881;49.962;7.718;2022-10-16T02:16:38;4.00;;;2.37;;
3781;SDS011;6881;49.962;7.718;2022-10-16T02:19:06;3.57;;;2.17;;
3781;SDS011;6881;49.962;7.718;2022-10-16T02:21:38;4.73;;;2.00;;
3781;SDS011;6881;49.962;7.718;2022-10-16T02:24:17;2.17;;;1.63;;
3781;SDS011;6881;49.962;7.718;2022-10-16T02:26:55;2.50;;;1.80;;
3781;SDS011;6881;49.962;7.718;2022-10-16T02:29:24;7.73;;;2.23;;
3781;SDS011;6881;49.962;7.718;2022-10-16T02:31:53;5.33;;;2.00;;
3781;SDS011;6881;49.962;7.718;2022-10-16T02:34:21;3.23;;;2.03;;
3781;SDS011;6881;49.962;7.718;2022-10-16T02:36:48;7.10;;;2.40;;
3781;SDS011;6881;49.962;7.718;2022-10-16T02:39:14;4.83;;;1.90;;
3781;SDS011;6881;49.962;7.718;2022-10-16T02:41:39;3.80;;;1.90;;
3781;SDS011;6881;49.962;7.718;2022-10-16T02:44:05;3.73;;;1.90;;
3781;SDS011;6881;49.962;7.718;2022-10-16T02:46:30;3.67;;;2.13;;
3781;SDS011;6881;49.962;7.718;2022-10-16T02:48:55;2.20;;;2.00;;
3781;SDS011;6881;49.962;7.718;2022-10-16T02:51:21;3.97;;;2.27;;
3781;SDS011;6881;49.962;7.718;2022-10-16T02:53:46;4.73;;;2.00;;
3781;SDS011;6881;49.962;7.718;2022-10-16T02:56:11;8.13;;;2.33;;
3781;SDS011;6881;49.962;7.718;2022-10-16T02:58:37;6.90;;;1.93;;
3781;SDS011;6881;49.962;7.718;2022-10-16T03:01:02;4.63;;;2.40;;
3781;SDS011;6881;49.962;7.718;2022-10-16T03:03:28;3.20;;;2.90;;
3781;SDS011;6881;49.962;7.718;2022-10-16T03:05:53;2.23;;;2.00;;
3781;SDS011;6881;49.962;7.718;2022-10-16T03:08:18;2.80;;;2.10;;
3781;SDS011;6881;49.962;7.718;2022-10-16T03:10:48;3.03;;;1.70;;
3781;SDS011;6881;49.962;7.718;2022-10-16T03:13:14;2.37;;;2.17;;
3781;SDS011;6881;49.962;7.718;2022-10-16T03:15:39;11.00;;;2.83;;
3781;SDS011;6881;49.962;7.718;2022-10-16T03:18:04;2.60;;;2.00;;
3781;SDS011;6881;49.962;7.718;2022-10-16T03:20:30;5.57;;;2.20;;
3781;SDS011;6881;49.962;7.718;2022-10-16T03:22:55;3.53;;;2.10;;
3781;SDS011;6881;49.962;7.718;2022-10-16T03:25:20;2.97;;;1.97;;
3781;SDS011;6881;49.962;7.718;2022-10-16T03:27:46;4.00;;;2.23;;
3781;SDS011;6881;49.962;7.718;2022-10-16T03:30:11;2.37;;;1.90;;
3781;SDS011;6881;49.962;7.718;2022-10-16T03:32:37;1.80;;;1.70;;
3781;SDS011;6881;49.962;7.718;2022-10-16T03:35:02;7.03;;;2.13;;
3781;SDS011;6881;49.962;7.718;2022-10-16T03:37:27;2.60;;;1.93;;
3781;SDS011;6881;49.962;7.718;2022-10-16T03:39:53;2.47;;;2.27;;
3781;SDS011;6881;49.962;7.718;2022-10-16T03:42:18;2.10;;;1.87;;
3781;SDS011;6881;49.962;7.718;2022-10-16T03:44:44;3.20;;;2.93;;
3781;SDS011;6881;49.962;7.718;2022-10-16T03:47:09;4.60;;;2.47;;
3781;SDS011;6881;49.962;7.718;2022-10-16T03:49:34;2.87;;;2.00;;
3781;SDS011;6881;49.962;7.718;2022-10-16T03:52:00;2.67;;;2.47;;
3781;SDS011;6881;49.962;7.718;2022-10-16T03:54:25;5.43;;;2.47;;
3781;SDS011;6881;49.962;7.718;2022-10-16T03:56:51;2.80;;;2.33;;
3781;SDS011;6881;49.962;7.718;2022-10-16T03:59:16;4.87;;;2.53;;
3781;SDS011;6881;49.962;7.718;2022-10-16T04:01:41;3.30;;;2.50;;
3781;SDS011;6881;49.962;7.718;2022-10-16T04:04:07;4.20;;;2.47;;
3781;SDS011;6881;49.962;7.718;2022-10-16T04:06:32;3.90;;;2.70;;
3781;SDS011;6881;49.962;7.718;2022-10-16T04:08:57;4.80;;;2.80;;
3781;SDS011;6881;49.962;7.718;2022-10-16T04:11:23;2.47;;;2.27;;
3781;SDS011;6881;49.962;7.718;2022-10-16T04:13:49;4.30;;;2.17;;
3781;SDS011;6881;49.962;7.718;2022-10-16T04:16:14;2.83;;;2.27;;
3781;SDS011;6881;49.962;7.718;2022-10-16T04:18:39;3.20;;;2.40;;
3781;SDS011;6881;49.962;7.718;2022-10-16T04:21:05;6.30;;;2.77;;
3781;SDS011;6881;49.962;7.718;2022-10-16T04:23:31;7.00;;;3.00;;
3781;SDS011;6881;49.962;7.718;2022-10-16T04:25:57;3.30;;;2.20;;
3781;SDS011;6881;49.962;7.718;2022-10-16T04:28:22;4.73;;;2.57;;
3781;SDS011;6881;49.962;7.718;2022-10-16T04:30:47;2.60;;;2.40;;
3781;SDS011;6881;49.962;7.718;2022-10-16T04:33:13;2.00;;;1.90;;
3781;SDS011;6881;49.962;7.718;2022-10-16T04:35:38;5.67;;;2.87;;
3781;SDS011;6881;49.962;7.718;2022-10-16T04:38:04;2.50;;;2.30;;
3781;SDS011;6881;49.962;7.718;2022-10-16T04:40:29;4.00;;;2.97;;
3781;SDS011;6881;49.962;7.718;2022-10-16T04:42:57;3.83;;;3.20;;
3781;SDS011;6881;49.962;7.718;2022-10-16T04:45:23;9.23;;;6.20;;
3781;SDS011;6881;49.962;7.718;2022-10-16T04:47:49;13.93;;;10.53;;
3781;SDS011;6881;49.962;7.718;2022-10-16T04:50:14;17.60;;;14.17;;
3781;SDS011;6881;49.962;7.718;2022-10-16T04:52:39;6.97;;;5.73;;
3781;SDS011;6881;49.962;7.718;2022-10-16T04:55:05;5.30;;;4.07;;
3781;SDS011;6881;49.962;7.718;2022-10-16T04:57:30;4.23;;;3.83;;
3781;SDS011;6881;49.962;7.718;2022-10-16T04:59:56;3.80;;;3.50;;
3781;SDS011;6881;49.962;7.718;2022-10-16T05:02:27;3.43;;;3.13;;
3781;SDS011;6881;49.962;7.718;2022-10-16T05:04:52;4.17;;;3.77;;
3781;SDS011;6881;49.962;7.718;2022-10-16T05:07:18;4.00;;;3.70;;
3781;SDS011;6881;49.962;7.718;2022-10-16T05:09:43;4.03;;;3.10;;
3781;SDS011;6881;49.962;7.718;2022-10-16T05:12:08;2.97;;;2.77;;
3781;SDS011;6881;49.962;7.718;2022-10-16T05:14:34;4.60;;;3.80;;
3781;SDS011;6881;49.962;7.718;2022-10-16T05:16:59;5.97;;;4.47;;
3781;SDS011;6881;49.962;7.718;2022-10-16T05:19:25;4.60;;;4.03;;
3781;SDS011;6881;49.962;7.718;2022-10-16T05:21:50;4.90;;;3.70;;
3781;SDS011;6881;49.962;7.718;2022-10-16T05:24:16;5.33;;;3.60;;
3781;SDS011;6881;49.962;7.718;2022-10-16T05:26:41;4.80;;;3.73;;
3781;SDS011;6881;49.962;7.718;2022-10-16T05:29:06;4.50;;;4.10;;
3781;SDS011;6881;49.962;7.718;2022-10-16T05:31:32;6.03;;;3.53;;
3781;SDS011;6881;49.962;7.718;2022-10-16T05:34:00;4.93;;;3.77;;
3781;SDS011;6881;49.962;7.718;2022-10-16T05:36:26;3.43;;;3.13;;
3781;SDS011;6881;49.962;7.718;2022-10-16T05:38:51;3.37;;;3.07;;
3781;SDS011;6881;49.962;7.718;2022-10-16T05:41:16;3.17;;;2.87;;
3781;SDS011;6881;49.962;7.718;2022-10-16T05:43:46;3.33;;;3.00;;
3781;SDS011;6881;49.962;7.718;2022-10-16T05:46:12;3.00;;;2.80;;
3781;SDS011;6881;49.962;7.718;2022-10-16T05:48:38;3.30;;;3.00;;
3781;SDS011;6881;49.962;7.718;2022-10-16T05:51:04;4.87;;;3.50;;
3781;SDS011;6881;49.962;7.718;2022-10-16T05:53:32;3.43;;;2.50;;
3781;SDS011;6881;49.962;7.718;2022-10-16T05:55:59;4.70;;;2.57;;
3781;SDS011;6881;49.962;7.718;2022-10-16T05:58:25;3.43;;;3.13;;
3781;SDS011;6881;49.962;7.718;2022-10-16T06:00:58;3.63;;;3.33;;
3781;SDS011;6881;49.962;7.718;2022-10-16T06:03:25;5.37;;;3.97;;
3781;SDS011;6881;49.962;7.718;2022-10-16T06:05:51;4.13;;;3.60;;
3781;SDS011;6881;49.962;7.718;2022-10-16T06:08:17;7.33;;;4.50;;
3781;SDS011;6881;49.962;7.718;2022-10-16T06:10:43;3.63;;;3.33;;
3781;SDS011;6881;49.962;7.718;2022-10-16T06:13:10;4.93;;;4.43;;
3781;SDS011;6881;49.962;7.718;2022-10-16T06:15:35;4.27;;;3.87;;
3781;SDS011;6881;49.962;7.718;2022-10-16T06:18:01;5.10;;;4.60;;
3781;SDS011;6881;49.962;7.718;2022-10-16T06:20:26;6.07;;;4.90;;
3781;SDS011;6881;49.962;7.718;2022-10-16T06:22:51;7.27;;;4.43;;
3781;SDS011;6881;49.962;7.718;2022-10-16T06:25:17;4.53;;;4.13;;
3781;SDS011;6881;49.962;7.718;2022-10-16T06:27:42;6.37;;;5.87;;
3781;SDS011;6881;49.962;7.718;2022-10-16T06:30:07;6.10;;;5.50;;
3781;SDS011;6881;49.962;7.718;2022-10-16T06:32:33;9.40;;;8.60;;
3781;SDS011;6881;49.962;7.718;2022-10-16T06:34:58;11.13;;;10.27;;
3781;SDS011;6881;49.962;7.718;2022-10-16T06:37:24;8.93;;;8.23;;
3781;SDS011;6881;49.962;7.718;2022-10-16T06:39:50;8.93;;;8.30;;
3781;SDS011;6881;49.962;7.718;2022-10-16T06:42:17;7.60;;;6.80;;
3781;SDS011;6881;49.962;7.718;2022-10-16T06:44:43;9.03;;;6.43;;
3781;SDS011;6881;49.962;7.718;2022-10-16T06:47:08;6.27;;;5.43;;
3781;SDS011;6881;49.962;7.718;2022-10-16T06:49:33;5.17;;;4.50;;
3781;SDS011;6881;49.962;7.718;2022-10-16T06:51:59;5.97;;;5.43;;
3781;SDS011;6881;49.962;7.718;2022-10-16T06:54:24;7.20;;;5.13;;
3781;SDS011;6881;49.962;7.718;2022-10-16T06:56:50;33.67;;;23.77;;
3781;SDS011;6881;49.962;7.718;2022-10-16T06:59:16;13.10;;;11.70;;
3781;SDS011;6881;49.962;7.718;2022-10-16T07:01:41;9.50;;;8.00;;
3781;SDS011;6881;49.962;7.718;2022-10-16T07:04:07;6.97;;;6.27;;
3781;SDS011;6881;49.962;7.718;2022-10-16T07:06:33;7.23;;;6.50;;
3781;SDS011;6881;49.962;7.718;2022-10-16T07:09:00;8.83;;;7.10;;
3781;SDS011;6881;49.962;7.718;2022-10-16T07:11:26;11.93;;;9.77;;
3781;SDS011;6881;49.962;7.718;2022-10-16T07:13:52;11.70;;;9.67;;
3781;SDS011;6881;49.962;7.718;2022-10-16T07:16:18;15.00;;;13.40;;
3781;SDS011;6881;49.962;7.718;2022-10-16T07:18:45;20.73;;;16.90;;
3781;SDS011;6881;49.962;7.718;2022-10-16T07:23:37;16.23;;;12.10;;
3781;SDS011;6881;49.962;7.718;2022-10-16T07:26:04;12.77;;;9.50;;
3781;SDS011;6881;49.962;7.718;2022-10-16T07:28:29;13.77;;;8.73;;
3781;SDS011;6881;49.962;7.718;2022-10-16T07:31:00;9.97;;;8.03;;
3781;SDS011;6881;49.962;7.718;2022-10-16T07:33:26;11.87;;;8.37;;
3781;SDS011;6881;49.962;7.718;2022-10-16T07:35:53;20.33;;;13.13;;
3781;SDS011;6881;49.962;7.718;2022-10-16T07:38:19;14.60;;;10.97;;
3781;SDS011;6881;49.962;7.718;2022-10-16T07:40:44;21.37;;;17.23;;
3781;SDS011;6881;49.962;7.718;2022-10-16T07:43:10;20.07;;;15.23;;
3781;SDS011;6881;49.962;7.718;2022-10-16T07:45:35;19.13;;;15.17;;
3781;SDS011;6881;49.962;7.718;2022-10-16T07:48:00;18.70;;;14.30;;
3781;SDS011;6881;49.962;7.718;2022-10-16T07:50:26;17.27;;;13.03;;
3781;SDS011;6881;49.962;7.718;2022-10-16T07:52:51;25.87;;;14.93;;
3781;SDS011;6881;49.962;7.718;2022-10-16T07:55:17;20.53;;;14.23;;
3781;SDS011;6881;49.962;7.718;2022-10-16T07:57:42;25.47;;;15.73;;
3781;SDS011;6881;49.962;7.718;2022-10-16T08:00:08;23.43;;;16.50;;
3781;SDS011;6881;49.962;7.718;2022-10-16T08:02:38;24.57;;;14.63;;
3781;SDS011;6881;49.962;7.718;2022-10-16T08:05:04;20.77;;;14.87;;
3781;SDS011;6881;49.962;7.718;2022-10-16T08:07:30;16.83;;;14.60;;
3781;SDS011;6881;49.962;7.718;2022-10-16T08:09:55;14.60;;;9.70;;
3781;SDS011;6881;49.962;7.718;2022-10-16T08:12:23;13.07;;;9.40;;
3781;SDS011;6881;49.962;7.718;2022-10-16T08:14:48;12.70;;;9.27;;
3781;SDS011;6881;49.962;7.718;2022-10-16T08:17:14;11.27;;;8.80;;
3781;SDS011;6881;49.962;7.718;2022-10-16T08:19:40;9.80;;;8.80;;
3781;SDS011;6881;49.962;7.718;2022-10-16T08:22:09;8.70;;;7.90;;
3781;SDS011;6881;49.962;7.718;2022-10-16T08:24:34;11.33;;;10.13;;
3781;SDS011;6881;49.962;7.718;2022-10-16T08:27:01;15.17;;;12.90;;
3781;SDS011;6881;49.962;7.718;2022-10-16T08:29:27;16.37;;;12.70;;
3781;SDS011;6881;49.962;7.718;2022-10-16T08:31:52;17.33;;;14.97;;
3781;SDS011;6881;49.962;7.718;2022-10-16T08:34:18;14.87;;;13.00;;
3781;SDS011;6881;49.962;7.718;2022-10-16T08:36:43;19.27;;;13.73;;
3781;SDS011;6881;49.962;7.718;2022-10-16T08:39:08;17.40;;;15.53;;
3781;SDS011;6881;49.962;7.718;2022-10-16T08:49:18;14.27;;;11.50;;
3781;SDS011;6881;49.962;7.718;2022-10-16T08:51:43;13.00;;;11.40;;
3781;SDS011;6881;49.962;7.718;2022-10-16T08:54:31;18.33;;;12.40;;
3781;SDS011;6881;49.962;7.718;2022-10-16T08:57:07;14.77;;;9.50;;
3781;SDS011;6881;49.962;7.718;2022-10-16T08:59:42;12.00;;;9.87;;
3781;SDS011;6881;49.962;7.718;2022-10-16T09:02:16;12.40;;;9.30;;
3781;SDS011;6881;49.962;7.718;2022-10-16T09:04:51;9.67;;;8.63;;
3781;SDS011;6881;49.962;7.718;2022-10-16T09:13:06;8.23;;;7.40;;
3781;SDS011;6881;49.962;7.718;2022-10-16T09:18:24;6.80;;;6.20;;
3781;SDS011;6881;49.962;7.718;2022-10-16T09:23:37;6.80;;;6.10;;
3781;SDS011;6881;49.962;7.718;2022-10-16T09:26:03;7.57;;;6.17;;
3781;SDS011;6881;49.962;7.718;2022-10-16T09:28:30;5.80;;;5.30;;
3781;SDS011;6881;49.962;7.718;2022-10-16T09:30:55;5.47;;;4.97;;
3781;SDS011;6881;49.962;7.718;2022-10-16T09:33:30;8.47;;;7.67;;
3781;SDS011;6881;49.962;7.718;2022-10-16T09:35:59;6.53;;;5.93;;
3781;SDS011;6881;49.962;7.718;2022-10-16T09:38:29;4.30;;;3.90;;
3781;SDS011;6881;49.962;7.718;2022-10-16T09:40:56;4.00;;;3.60;;
3781;SDS011;6881;49.962;7.718;2022-10-16T09:48:48;6.03;;;5.17;;
3781;SDS011;6881;49.962;7.718;2022-10-16T09:51:37;6.17;;;4.80;;
3781;SDS011;6881;49.962;7.718;2022-10-16T09:54:02;4.27;;;3.87;;
3781;SDS011;6881;49.962;7.718;2022-10-16T09:56:37;4.77;;;4.00;;
3781;SDS011;6881;49.962;7.718;2022-10-16T09:59:14;4.57;;;4.17;;
3781;SDS011;6881;49.962;7.718;2022-10-16T10:01:41;6.30;;;3.97;;
3781;SDS011;6881;49.962;7.718;2022-10-16T10:04:09;4.40;;;4.00;;
3781;SDS011;6881;49.962;7.718;2022-10-16T10:06:36;2.97;;;2.70;;
3781;SDS011;6881;49.962;7.718;2022-10-16T10:09:06;3.13;;;2.63;;
3781;SDS011;6881;49.962;7.718;2022-10-16T10:17:26;4.00;;;2.97;;
3781;SDS011;6881;49.962;7.718;2022-10-16T10:19:53;3.17;;;2.87;;
3781;SDS011;6881;49.962;7.718;2022-10-16T10:39:01;2.23;;;2.03;;
3781;SDS011;6881;49.962;7.718;2022-10-16T10:46:49;2.90;;;2.67;;
3781;SDS011;6881;49.962;7.718;2022-10-16T10:54:35;4.00;;;3.40;;
3781;SDS011;6881;49.962;7.718;2022-10-16T10:57:02;3.43;;;2.93;;
3781;SDS011;6881;49.962;7.718;2022-10-16T10:59:38;5.43;;;3.23;;
3781;SDS011;6881;49.962;7.718;2022-10-16T11:05:33;5.20;;;4.10;;
3781;SDS011;6881;49.962;7.718;2022-10-16T11:08:09;4.70;;;4.20;;
3781;SDS011;6881;49.962;7.718;2022-10-16T11:11:00;8.13;;;4.00;;
3781;SDS011;6881;49.962;7.718;2022-10-16T11:16:17;3.70;;;3.40;;
3781;SDS011;6881;49.962;7.718;2022-10-16T11:18:52;4.73;;;4.30;;
3781;SDS011;6881;49.962;7.718;2022-10-16T11:21:46;4.13;;;3.70;;
3781;SDS011;6881;49.962;7.718;2022-10-16T11:27:16;4.00;;;2.93;;
3781;SDS011;6881;49.962;7.718;2022-10-16T11:29:58;3.53;;;2.93;;
3781;SDS011;6881;49.962;7.718;2022-10-16T11:32:28;2.40;;;2.30;;
3781;SDS011;6881;49.962;7.718;2022-10-16T11:35:00;4.13;;;2.83;;
3781;SDS011;6881;49.962;7.718;2022-10-16T11:37:34;3.00;;;2.70;;
3781;SDS011;6881;49.962;7.718;2022-10-16T11:40:11;2.83;;;2.63;;
3781;SDS011;6881;49.962;7.718;2022-10-16T11:42:46;2.83;;;2.43;;
3781;SDS011;6881;49.962;7.718;2022-10-16T11:45:33;2.97;;;2.67;;
3781;SDS011;6881;49.962;7.718;2022-10-16T11:48:07;2.80;;;2.43;;
3781;SDS011;6881;49.962;7.718;2022-10-16T11:50:57;2.57;;;2.37;;
3781;SDS011;6881;49.962;7.718;2022-10-16T11:56:00;6.47;;;2.80;;
3781;SDS011;6881;49.962;7.718;2022-10-16T11:59:12;3.00;;;2.47;;
3781;SDS011;6881;49.962;7.718;2022-10-16T12:01:54;3.93;;;3.27;;
3781;SDS011;6881;49.962;7.718;2022-10-16T12:07:14;2.83;;;2.63;;
3781;SDS011;6881;49.962;7.718;2022-10-16T12:09:41;7.60;;;3.00;;
3781;SDS011;6881;49.962;7.718;2022-10-16T12:17:51;2.80;;;2.60;;
3781;SDS011;6881;49.962;7.718;2022-10-16T12:30:39;2.80;;;2.60;;
3781;SDS011;6881;49.962;7.718;2022-10-16T12:33:15;2.53;;;2.33;;
3781;SDS011;6881;49.962;7.718;2022-10-16T12:35:46;2.70;;;2.50;;
3781;SDS011;6881;49.962;7.718;2022-10-16T12:38:21;3.17;;;2.47;;
3781;SDS011;6881;49.962;7.718;2022-10-16T12:41:01;2.93;;;1.70;;
3781;SDS011;6881;49.962;7.718;2022-10-16T12:43:35;2.50;;;2.30;;
3781;SDS011;6881;49.962;7.718;2022-10-16T12:46:06;4.23;;;2.47;;
3781;SDS011;6881;49.962;7.718;2022-10-16T12:48:47;2.50;;;1.97;;
3781;SDS011;6881;49.962;7.718;2022-10-16T12:54:10;2.20;;;2.00;;
3781;SDS011;6881;49.962;7.718;2022-10-16T13:16:05;2.67;;;2.43;;
3781;SDS011;6881;49.962;7.718;2022-10-16T13:18:56;2.63;;;2.43;;
3781;SDS011;6881;49.962;7.718;2022-10-16T13:21:42;3.20;;;2.47;;
3781;SDS011;6881;49.962;7.718;2022-10-16T13:29:30;2.80;;;2.60;;
3781;SDS011;6881;49.962;7.718;2022-10-16T13:31:57;4.30;;;2.53;;
3781;SDS011;6881;49.962;7.718;2022-10-16T13:34:23;3.73;;;2.83;;
3781;SDS011;6881;49.962;7.718;2022-10-16T13:36:51;3.50;;;3.20;;
3781;SDS011;6881;49.962;7.718;2022-10-16T13:44:48;3.50;;;3.20;;
3781;SDS011;6881;49.962;7.718;2022-10-16T13:47:18;5.47;;;3.17;;
3781;SDS011;6881;49.962;7.718;2022-10-16T13:49:45;3.33;;;3.03;;
3781;SDS011;6881;49.962;7.718;2022-10-16T13:52:15;4.00;;;3.60;;
3781;SDS011;6881;49.962;7.718;2022-10-16T13:54:42;3.40;;;3.10;;
3781;SDS011;6881;49.962;7.718;2022-10-16T13:57:07;6.10;;;3.77;;
3781;SDS011;6881;49.962;7.718;2022-10-16T13:59:34;7.30;;;3.17;;
3781;SDS011;6881;49.962;7.718;2022-10-16T14:02:05;3.33;;;3.03;;
3781;SDS011;6881;49.962;7.718;2022-10-16T14:04:47;3.40;;;3.10;;
3781;SDS011;6881;49.962;7.718;2022-10-16T14:07:14;3.20;;;3.00;;
3781;SDS011;6881;49.962;7.718;2022-10-16T14:09:51;8.53;;;3.60;;
3781;SDS011;6881;49.962;7.718;2022-10-16T14:12:17;3.80;;;3.47;;
3781;SDS011;6881;49.962;7.718;2022-10-16T14:14:44;3.80;;;3.50;;
3781;SDS011;6881;49.962;7.718;2022-10-16T14:17:14;3.60;;;3.30;;
3781;SDS011;6881;49.962;7.718;2022-10-16T14:19:40;3.70;;;3.40;;
3781;SDS011;6881;49.962;7.718;2022-10-16T14:22:19;4.87;;;3.73;;
3781;SDS011;6881;49.962;7.718;2022-10-16T14:24:46;3.90;;;3.50;;
3781;SDS011;6881;49.962;7.718;2022-10-16T14:27:20;3.93;;;3.63;;
3781;SDS011;6881;49.962;7.718;2022-10-16T14:29:50;6.10;;;5.50;;
3781;SDS011;6881;49.962;7.718;2022-10-16T14:32:22;4.30;;;4.00;;
3781;SDS011;6881;49.962;7.718;2022-10-16T14:34:52;5.73;;;3.80;;
3781;SDS011;6881;49.962;7.718;2022-10-16T14:37:27;4.27;;;3.87;;
3781;SDS011;6881;49.962;7.718;2022-10-16T14:39:54;5.67;;;4.57;;
3781;SDS011;6881;49.962;7.718;2022-10-16T14:42:20;4.70;;;4.30;;
3781;SDS011;6881;49.962;7.718;2022-10-16T14:44:49;4.60;;;4.23;;
3781;SDS011;6881;49.962;7.718;2022-10-16T14:47:18;4.93;;;4.40;;
3781;SDS011;6881;49.962;7.718;2022-10-16T14:49:47;5.20;;;4.80;;
3781;SDS011;6881;49.962;7.718;2022-10-16T14:52:13;5.40;;;4.90;;
3781;SDS011;6881;49.962;7.718;2022-10-16T14:54:39;5.93;;;5.43;;
3781;SDS011;6881;49.962;7.718;2022-10-16T14:57:05;7.07;;;5.50;;
3781;SDS011;6881;49.962;7.718;2022-10-16T14:59:32;6.33;;;5.80;;
3781;SDS011;6881;49.962;7.718;2022-10-16T15:01:58;7.70;;;5.87;;
3781;SDS011;6881;49.962;7.718;2022-10-16T15:04:23;7.23;;;5.97;;
3781;SDS011;6881;49.962;7.718;2022-10-16T15:06:49;6.90;;;6.20;;
3781;SDS011;6881;49.962;7.718;2022-10-16T15:09:14;6.97;;;6.37;;
3781;SDS011;6881;49.962;7.718;2022-10-16T15:11:40;7.30;;;6.40;;
3781;SDS011;6881;49.962;7.718;2022-10-16T15:14:08;5.77;;;5.17;;
3781;SDS011;6881;49.962;7.718;2022-10-16T15:16:36;7.03;;;6.33;;
3781;SDS011;6881;49.962;7.718;2022-10-16T15:19:01;6.80;;;5.80;;
3781;SDS011;6881;49.962;7.718;2022-10-16T15:21:27;7.63;;;6.20;;
3781;SDS011;6881;49.962;7.718;2022-10-16T15:23:54;6.30;;;5.67;;
3781;SDS011;6881;49.962;7.718;2022-10-16T15:26:21;6.30;;;5.70;;
3781;SDS011;6881;49.962;7.718;2022-10-16T15:28:54;6.90;;;6.30;;
3781;SDS011;6881;49.962;7.718;2022-10-16T15:31:19;6.93;;;5.40;;
3781;SDS011;6881;49.962;7.718;2022-10-16T15:33:46;7.00;;;6.30;;
3781;SDS011;6881;49.962;7.718;2022-10-16T15:36:23;7.90;;;6.47;;
3781;SDS011;6881;49.962;7.718;2022-10-16T15:38:53;6.57;;;5.90;;
3781;SDS011;6881;49.962;7.718;2022-10-16T15:41:18;8.50;;;6.67;;
3781;SDS011;6881;49.962;7.718;2022-10-16T15:43:44;9.00;;;7.00;;
3781;SDS011;6881;49.962;7.718;2022-10-16T15:46:10;6.30;;;5.70;;
3781;SDS011;6881;49.962;7.718;2022-10-16T15:48:36;7.20;;;6.50;;
3781;SDS011;6881;49.962;7.718;2022-10-16T15:51:05;7.83;;;7.03;;
3781;SDS011;6881;49.962;7.718;2022-10-16T15:53:32;7.40;;;6.07;;
3781;SDS011;6881;49.962;7.718;2022-10-16T15:56:01;8.07;;;7.27;;
3781;SDS011;6881;49.962;7.718;2022-10-16T15:58:29;7.57;;;6.87;;
3781;SDS011;6881;49.962;7.718;2022-10-16T16:00:58;6.70;;;6.00;;
3781;SDS011;6881;49.962;7.718;2022-10-16T16:03:26;6.73;;;6.03;;
3781;SDS011;6881;49.962;7.718;2022-10-16T16:05:52;7.83;;;6.90;;
3781;SDS011;6881;49.962;7.718;2022-10-16T16:08:17;9.23;;;8.33;;
3781;SDS011;6881;49.962;7.718;2022-10-16T16:10:43;7.77;;;6.97;;
3781;SDS011;6881;49.962;7.718;2022-10-16T16:13:08;6.70;;;6.20;;
3781;SDS011;6881;49.962;7.718;2022-10-16T16:15:34;7.07;;;6.37;;
3781;SDS011;6881;49.962;7.718;2022-10-16T16:17:59;8.93;;;7.57;;
3781;SDS011;6881;49.962;7.718;2022-10-16T16:20:26;9.37;;;8.37;;
3781;SDS011;6881;49.962;7.718;2022-10-16T16:22:52;8.60;;;7.07;;
3781;SDS011;6881;49.962;7.718;2022-10-16T16:25:17;8.00;;;7.20;;
3781;SDS011;6881;49.962;7.718;2022-10-16T16:27:42;8.67;;;7.10;;
3781;SDS011;6881;49.962;7.718;2022-10-16T16:30:09;8.20;;;7.50;;
3781;SDS011;6881;49.962;7.718;2022-10-16T16:32:35;14.43;;;8.70;;
3781;SDS011;6881;49.962;7.718;2022-10-16T16:35:01;8.80;;;7.93;;
3781;SDS011;6881;49.962;7.718;2022-10-16T16:37:27;8.27;;;7.37;;
3781;SDS011;6881;49.962;7.718;2022-10-16T16:39:52;9.60;;;8.07;;
3781;SDS011;6881;49.962;7.718;2022-10-16T16:42:20;9.50;;;8.30;;
3781;SDS011;6881;49.962;7.718;2022-10-16T16:44:47;8.90;;;8.00;;
3781;SDS011;6881;49.962;7.718;2022-10-16T16:47:12;14.00;;;8.93;;
3781;SDS011;6881;49.962;7.718;2022-10-16T16:49:38;10.10;;;7.87;;
3781;SDS011;6881;49.962;7.718;2022-10-16T16:52:03;10.00;;;8.00;;
3781;SDS011;6881;49.962;7.718;2022-10-16T16:54:28;7.80;;;7.00;;
3781;SDS011;6881;49.962;7.718;2022-10-16T16:56:54;9.77;;;8.33;;
3781;SDS011;6881;49.962;7.718;2022-10-16T16:59:20;9.30;;;8.50;;
3781;SDS011;6881;49.962;7.718;2022-10-16T17:01:46;8.60;;;7.80;;
3781;SDS011;6881;49.962;7.718;2022-10-16T17:04:12;7.93;;;7.13;;
3781;SDS011;6881;49.962;7.718;2022-10-16T17:06:40;8.83;;;7.93;;
3781;SDS011;6881;49.962;7.718;2022-10-16T17:09:05;12.40;;;9.63;;
3781;SDS011;6881;49.962;7.718;2022-10-16T17:11:31;9.47;;;8.67;;
3781;SDS011;6881;49.962;7.718;2022-10-16T17:13:58;16.60;;;11.70;;
3781;SDS011;6881;49.962;7.718;2022-10-16T17:16:25;50.80;;;34.43;;
3781;SDS011;6881;49.962;7.718;2022-10-16T17:18:52;42.30;;;31.53;;
3781;SDS011;6881;49.962;7.718;2022-10-16T17:21:18;18.47;;;15.13;;
3781;SDS011;6881;49.962;7.718;2022-10-16T17:23:44;23.60;;;18.60;;
3781;SDS011;6881;49.962;7.718;2022-10-16T17:26:13;16.87;;;14.30;;
3781;SDS011;6881;49.962;7.718;2022-10-16T17:28:40;13.47;;;10.77;;
3781;SDS011;6881;49.962;7.718;2022-10-16T17:33:39;18.30;;;16.50;;
3781;SDS011;6881;49.962;7.718;2022-10-16T17:36:05;15.67;;;14.17;;